sensor_id;sensor_type;location;lat;lon;timestamp;temperature;humidity
51902;DHT22;37929;53.218;6.548;2022-08-21T00:00:05;17.40;99.90
51902;DHT22;37929;53.218;6.548;2022-08-21T00:02:31;17.30;99.90
51902;DHT22;37929;53.218;6.548;2022-08-21T00:04:57;17.30;99.90
51902;DHT22;37929;53.218;6.548;2022-08-21T00:07:22;17.20;99.90
51902;DHT22;37929;53.218;6.548;2022-08-21T00:09:54;17.10;99.90
51902;DHT22;37929;53.218;6.548;2022-08-21T00:12:20;17.10;99.90
51902;DHT22;37929;53.218;6.548;2022-08-21T00:14:46;17.10;99.90
51902;DHT22;37929;53.218;6.548;2022-08-21T00:17:15;17.10;99.90
51902;DHT22;37929;53.218;6.548;2022-08-21T00:19:41;17.10;99.90
51902;DHT22;37929;53.218;6.548;2022-08-21T00:22:06;17.10;99.90
51902;DHT22;37929;53.218;6.548;2022-08-21T00:24:33;17.00;99.90
51902;DHT22;37929;53.218;6.548;2022-08-21T00:26:59;17.00;99.90
51902;DHT22;37929;53.218;6.548;2022-08-21T00:29:25;17.00;99.90
51902;DHT22;37929;53.218;6.548;2022-08-21T00:31:51;16.90;99.90
51902;DHT22;37929;53.218;6.548;2022-08-21T00:34:16;16.90;99.90
51902;DHT22;37929;53.218;6.548;2022-08-21T00:36:42;16.80;99.90
51902;DHT22;37929;53.218;6.548;2022-08-21T00:39:09;16.70;99.90
51902;DHT22;37929;53.218;6.548;2022-08-21T00:41:37;16.80;99.90
51902;DHT22;37929;53.218;6.548;2022-08-21T00:44:10;16.70;99.90
51902;DHT22;37929;53.218;6.548;2022-08-21T00:46:37;16.70;99.90
51902;DHT22;37929;53.218;6.548;2022-08-21T00:49:05;16.60;99.90
51902;DHT22;37929;53.218;6.548;2022-08-21T00:51:55;16.80;99.90
51902;DHT22;37929;53.218;6.548;2022-08-21T00:54:26;16.60;99.90
51902;DHT22;37929;53.218;6.548;2022-08-21T00:57:08;16.50;99.90
51902;DHT22;37929;53.218;6.548;2022-08-21T00:59:37;16.70;99.90
51902;DHT22;37929;53.218;6.548;2022-08-21T01:02:05;16.50;99.90
51902;DHT22;37929;53.218;6.548;2022-08-21T01:04:33;16.50;99.90
51902;DHT22;37929;53.218;6.548;2022-08-21T01:07:02;16.50;99.90
51902;DHT22;37929;53.218;6.548;2022-08-21T01:09:28;16.50;99.90
51902;DHT22;37929;53.218;6.548;2022-08-21T01:11:54;16.50;99.90
51902;DHT22;37929;53.218;6.548;2022-08-21T01:14:20;16.50;99.90
51902;DHT22;37929;53.218;6.548;2022-08-21T01:16:48;16.50;99.90
51902;DHT22;37929;53.218;6.548;2022-08-21T01:19:17;16.40;99.90
51902;DHT22;37929;53.218;6.548;2022-08-21T01:21:43;16.40;99.90
51902;DHT22;37929;53.218;6.548;2022-08-21T01:24:09;16.40;99.90
51902;DHT22;37929;53.218;6.548;2022-08-21T01:26:36;16.40;99.90
51902;DHT22;37929;53.218;6.548;2022-08-21T01:29:40;16.40;99.90
51902;DHT22;37929;53.218;6.548;2022-08-21T01:31:59;16.30;99.90
51902;DHT22;37929;53.218;6.548;2022-08-21T01:34:26;16.30;99.90
51902;DHT22;37929;53.218;6.548;2022-08-21T01:36:51;16.30;99.90
51902;DHT22;37929;53.218;6.548;2022-08-21T01:39:17;16.30;99.90
51902;DHT22;37929;53.218;6.548;2022-08-21T01:41:43;16.20;99.90
51902;DHT22;37929;53.218;6.548;2022-08-21T01:44:10;16.30;99.90
51902;DHT22;37929;53.218;6.548;2022-08-21T01:46:35;16.20;99.90
51902;DHT22;37929;53.218;6.548;2022-08-21T01:49:02;16.20;99.90
51902;DHT22;37929;53.218;6.548;2022-08-21T01:51:28;16.20;99.90
51902;DHT22;37929;53.218;6.548;2022-08-21T01:53:53;16.20;99.90
51902;DHT22;37929;53.218;6.548;2022-08-21T01:56:19;16.30;99.90
51902;DHT22;37929;53.218;6.548;2022-08-21T01:58:46;16.20;99.90
51902;DHT22;37929;53.218;6.548;2022-08-21T02:01:18;16.20;99.90
51902;DHT22;37929;53.218;6.548;2022-08-21T02:03:44;16.20;99.90
51902;DHT22;37929;53.218;6.548;2022-08-21T02:06:15;16.20;99.90
51902;DHT22;37929;53.218;6.548;2022-08-21T02:08:43;16.20;99.90
51902;DHT22;37929;53.218;6.548;2022-08-21T02:11:09;16.30;99.90
51902;DHT22;37929;53.218;6.548;2022-08-21T02:13:35;16.20;99.90
51902;DHT22;37929;53.218;6.548;2022-08-21T02:16:00;16.20;99.90
51902;DHT22;37929;53.218;6.548;2022-08-21T02:18:26;16.20;99.90
51902;DHT22;37929;53.218;6.548;2022-08-21T02:20:52;16.20;99.90
51902;DHT22;37929;53.218;6.548;2022-08-21T02:23:21;16.40;99.90
51902;DHT22;37929;53.218;6.548;2022-08-21T02:25:50;16.10;99.90
51902;DHT22;37929;53.218;6.548;2022-08-21T02:28:16;16.10;99.90
51902;DHT22;37929;53.218;6.548;2022-08-21T02:30:44;16.10;99.90
51902;DHT22;37929;53.218;6.548;2022-08-21T02:33:11;16.10;99.90
51902;DHT22;37929;53.218;6.548;2022-08-21T02:35:39;16.10;99.90
51902;DHT22;37929;53.218;6.548;2022-08-21T02:38:10;16.10;99.90
51902;DHT22;37929;53.218;6.548;2022-08-21T02:40:38;16.10;99.90
51902;DHT22;37929;53.218;6.548;2022-08-21T02:43:05;16.10;99.90
51902;DHT22;37929;53.218;6.548;2022-08-21T02:45:32;16.10;99.90
51902;DHT22;37929;53.218;6.548;2022-08-21T02:48:01;16.00;99.90
51902;DHT22;37929;53.218;6.548;2022-08-21T02:50:31;16.00;99.90
51902;DHT22;37929;53.218;6.548;2022-08-21T02:52:57;16.00;99.90
51902;DHT22;37929;53.218;6.548;2022-08-21T02:55:25;16.00;99.90
51902;DHT22;37929;53.218;6.548;2022-08-21T02:57:53;16.00;99.90
51902;DHT22;37929;53.218;6.548;2022-08-21T03:00:21;16.00;99.90
51902;DHT22;37929;53.218;6.548;2022-08-21T03:02:47;16.00;99.90
51902;DHT22;37929;53.218;6.548;2022-08-21T03:05:16;15.90;99.90
51902;DHT22;37929;53.218;6.548;2022-08-21T03:07:46;16.00;99.90
51902;DHT22;37929;53.218;6.548;2022-08-21T03:10:14;15.90;99.90
51902;DHT22;37929;53.218;6.548;2022-08-21T03:12:39;15.90;99.90
51902;DHT22;37929;53.218;6.548;2022-08-21T03:15:08;16.20;99.90
51902;DHT22;37929;53.218;6.548;2022-08-21T03:17:35;15.80;99.90
51902;DHT22;37929;53.218;6.548;2022-08-21T03:20:01;15.90;99.90
51902;DHT22;37929;53.218;6.548;2022-08-21T03:22:28;15.90;99.90
51902;DHT22;37929;53.218;6.548;2022-08-21T03:24:54;15.90;99.90
51902;DHT22;37929;53.218;6.548;2022-08-21T03:27:26;15.90;99.90
51902;DHT22;37929;53.218;6.548;2022-08-21T03:29:54;16.20;99.90
51902;DHT22;37929;53.218;6.548;2022-08-21T03:32:20;15.90;99.90
51902;DHT22;37929;53.218;6.548;2022-08-21T03:34:46;15.80;99.90
51902;DHT22;37929;53.218;6.548;2022-08-21T03:37:13;15.80;99.90
51902;DHT22;37929;53.218;6.548;2022-08-21T03:39:39;15.80;99.90
51902;DHT22;37929;53.218;6.548;2022-08-21T03:42:05;15.80;99.90
51902;DHT22;37929;53.218;6.548;2022-08-21T03:44:31;15.80;99.90
51902;DHT22;37929;53.218;6.548;2022-08-21T03:46:58;15.90;99.90
51902;DHT22;37929;53.218;6.548;2022-08-21T03:49:25;15.80;99.90
51902;DHT22;37929;53.218;6.548;2022-08-21T03:51:54;15.80;99.90
51902;DHT22;37929;53.218;6.548;2022-08-21T03:54:20;15.90;99.90
51902;DHT22;37929;53.218;6.548;2022-08-21T03:56:46;16.10;99.90
51902;DHT22;37929;53.218;6.548;2022-08-21T03:59:11;15.70;99.90
51902;DHT22;37929;53.218;6.548;2022-08-21T04:01:37;15.70;99.90
51902;DHT22;37929;53.218;6.548;2022-08-21T04:04:05;15.70;99.90
51902;DHT22;37929;53.218;6.548;2022-08-21T04:06:31;15.70;99.90
51902;DHT22;37929;53.218;6.548;2022-08-21T04:08:57;15.70;99.90
51902;DHT22;37929;53.218;6.548;2022-08-21T04:11:23;15.70;99.90
51902;DHT22;37929;53.218;6.548;2022-08-21T04:13:49;15.60;99.90
51902;DHT22;37929;53.218;6.548;2022-08-21T04:16:15;15.60;99.90
51902;DHT22;37929;53.218;6.548;2022-08-21T04:18:41;15.60;99.90
51902;DHT22;37929;53.218;6.548;2022-08-21T04:21:09;15.60;99.90
51902;DHT22;37929;53.218;6.548;2022-08-21T04:23:36;15.60;99.90
51902;DHT22;37929;53.218;6.548;2022-08-21T04:26:03;15.60;99.90
51902;DHT22;37929;53.218;6.548;2022-08-21T04:28:28;15.50;99.90
51902;DHT22;37929;53.218;6.548;2022-08-21T04:30:55;15.50;99.90
51902;DHT22;37929;53.218;6.548;2022-08-21T04:33:22;15.40;99.90
51902;DHT22;37929;53.218;6.548;2022-08-21T04:35:48;15.40;99.90
51902;DHT22;37929;53.218;6.548;2022-08-21T04:38:14;15.50;99.90
51902;DHT22;37929;53.218;6.548;2022-08-21T04:40:43;15.50;99.90
51902;DHT22;37929;53.218;6.548;2022-08-21T04:43:10;15.60;99.90
51902;DHT22;37929;53.218;6.548;2022-08-21T04:45:39;15.40;99.90
51902;DHT22;37929;53.218;6.548;2022-08-21T04:48:07;15.40;99.90
51902;DHT22;37929;53.218;6.548;2022-08-21T04:56:09;15.40;99.90
51902;DHT22;37929;53.218;6.548;2022-08-21T04:58:36;15.40;99.90
51902;DHT22;37929;53.218;6.548;2022-08-21T05:01:13;15.40;99.90
51902;DHT22;37929;53.218;6.548;2022-08-21T05:03:40;15.40;99.90
51902;DHT22;37929;53.218;6.548;2022-08-21T05:06:09;15.40;99.90
51902;DHT22;37929;53.218;6.548;2022-08-21T05:08:37;15.40;99.90
51902;DHT22;37929;53.218;6.548;2022-08-21T05:11:04;15.40;99.90
51902;DHT22;37929;53.218;6.548;2022-08-21T05:13:33;15.40;99.90
51902;DHT22;37929;53.218;6.548;2022-08-21T05:15:59;15.40;99.90
51902;DHT22;37929;53.218;6.548;2022-08-21T05:18:25;15.40;99.90
51902;DHT22;37929;53.218;6.548;2022-08-21T05:20:51;15.40;99.90
51902;DHT22;37929;53.218;6.548;2022-08-21T05:23:17;15.40;99.90
51902;DHT22;37929;53.218;6.548;2022-08-21T05:25:43;15.60;99.90
51902;DHT22;37929;53.218;6.548;2022-08-21T05:28:12;15.40;99.90
51902;DHT22;37929;53.218;6.548;2022-08-21T05:30:38;15.40;99.90
51902;DHT22;37929;53.218;6.548;2022-08-21T05:33:05;15.40;99.90
51902;DHT22;37929;53.218;6.548;2022-08-21T05:35:32;15.50;99.90
51902;DHT22;37929;53.218;6.548;2022-08-21T05:37:59;15.50;99.90
51902;DHT22;37929;53.218;6.548;2022-08-21T05:40:25;15.50;99.90
51902;DHT22;37929;53.218;6.548;2022-08-21T05:42:53;15.60;99.90
51902;DHT22;37929;53.218;6.548;2022-08-21T05:45:20;15.60;99.90
51902;DHT22;37929;53.218;6.548;2022-08-21T05:47:46;15.60;99.90
51902;DHT22;37929;53.218;6.548;2022-08-21T05:50:12;15.60;99.90
51902;DHT22;37929;53.218;6.548;2022-08-21T05:52:38;15.80;99.90
51902;DHT22;37929;53.218;6.548;2022-08-21T05:55:04;15.70;99.90
51902;DHT22;37929;53.218;6.548;2022-08-21T05:57:30;15.70;99.90
51902;DHT22;37929;53.218;6.548;2022-08-21T05:59:56;15.70;99.90
51902;DHT22;37929;53.218;6.548;2022-08-21T06:02:22;15.80;99.90
51902;DHT22;37929;53.218;6.548;2022-08-21T06:04:50;15.80;99.90
51902;DHT22;37929;53.218;6.548;2022-08-21T06:07:21;15.80;99.90
51902;DHT22;37929;53.218;6.548;2022-08-21T06:09:47;15.80;99.90
51902;DHT22;37929;53.218;6.548;2022-08-21T06:12:14;15.90;99.90
51902;DHT22;37929;53.218;6.548;2022-08-21T06:14:40;15.90;99.90
51902;DHT22;37929;53.218;6.548;2022-08-21T06:17:09;15.90;99.90
51902;DHT22;37929;53.218;6.548;2022-08-21T06:19:35;16.00;99.90
51902;DHT22;37929;53.218;6.548;2022-08-21T06:22:01;16.00;99.90
51902;DHT22;37929;53.218;6.548;2022-08-21T06:24:28;16.10;99.90
51902;DHT22;37929;53.218;6.548;2022-08-21T06:26:54;16.10;99.90
51902;DHT22;37929;53.218;6.548;2022-08-21T06:29:21;16.20;99.90
51902;DHT22;37929;53.218;6.548;2022-08-21T06:31:48;16.30;99.90
51902;DHT22;37929;53.218;6.548;2022-08-21T06:34:15;16.20;99.90
51902;DHT22;37929;53.218;6.548;2022-08-21T06:36:44;16.40;99.90
51902;DHT22;37929;53.218;6.548;2022-08-21T06:39:10;16.50;99.90
51902;DHT22;37929;53.218;6.548;2022-08-21T06:41:36;16.50;99.90
51902;DHT22;37929;53.218;6.548;2022-08-21T06:44:05;16.60;99.90
51902;DHT22;37929;53.218;6.548;2022-08-21T06:46:32;16.60;99.90
51902;DHT22;37929;53.218;6.548;2022-08-21T06:48:57;16.70;99.90
51902;DHT22;37929;53.218;6.548;2022-08-21T06:51:24;16.80;99.90
51902;DHT22;37929;53.218;6.548;2022-08-21T06:53:53;16.80;99.90
51902;DHT22;37929;53.218;6.548;2022-08-21T06:56:20;16.90;99.90
51902;DHT22;37929;53.218;6.548;2022-08-21T06:58:49;17.00;99.90
51902;DHT22;37929;53.218;6.548;2022-08-21T07:01:14;17.10;99.90
51902;DHT22;37929;53.218;6.548;2022-08-21T07:03:42;17.10;99.90
51902;DHT22;37929;53.218;6.548;2022-08-21T07:06:09;17.30;99.90
51902;DHT22;37929;53.218;6.548;2022-08-21T07:08:37;17.40;99.90
51902;DHT22;37929;53.218;6.548;2022-08-21T07:11:09;17.50;99.90
51902;DHT22;37929;53.218;6.548;2022-08-21T07:13:36;17.50;99.90
51902;DHT22;37929;53.218;6.548;2022-08-21T07:16:02;17.70;99.90
51902;DHT22;37929;53.218;6.548;2022-08-21T07:18:27;17.70;99.90
51902;DHT22;37929;53.218;6.548;2022-08-21T07:20:54;17.80;99.90
51902;DHT22;37929;53.218;6.548;2022-08-21T07:23:32;17.90;99.90
51902;DHT22;37929;53.218;6.548;2022-08-21T07:25:59;18.00;99.90
51902;DHT22;37929;53.218;6.548;2022-08-21T07:28:28;18.00;99.90
51902;DHT22;37929;53.218;6.548;2022-08-21T07:30:57;18.10;99.90
51902;DHT22;37929;53.218;6.548;2022-08-21T07:33:25;18.20;99.90
51902;DHT22;37929;53.218;6.548;2022-08-21T07:35:52;18.30;99.90
51902;DHT22;37929;53.218;6.548;2022-08-21T07:38:18;18.40;99.90
51902;DHT22;37929;53.218;6.548;2022-08-21T07:40:45;18.50;99.90
51902;DHT22;37929;53.218;6.548;2022-08-21T07:43:12;18.60;99.90
51902;DHT22;37929;53.218;6.548;2022-08-21T07:45:37;18.60;99.90
51902;DHT22;37929;53.218;6.548;2022-08-21T07:48:04;18.70;99.90
51902;DHT22;37929;53.218;6.548;2022-08-21T07:50:30;18.80;99.90
51902;DHT22;37929;53.218;6.548;2022-08-21T07:52:55;18.80;99.90
51902;DHT22;37929;53.218;6.548;2022-08-21T07:55:23;18.90;99.90
51902;DHT22;37929;53.218;6.548;2022-08-21T07:57:49;19.00;99.90
51902;DHT22;37929;53.218;6.548;2022-08-21T08:00:19;19.00;99.90
51902;DHT22;37929;53.218;6.548;2022-08-21T08:02:47;19.10;99.90
51902;DHT22;37929;53.218;6.548;2022-08-21T08:05:16;19.20;99.90
51902;DHT22;37929;53.218;6.548;2022-08-21T08:07:42;19.20;99.90
51902;DHT22;37929;53.218;6.548;2022-08-21T08:10:09;19.30;99.90
51902;DHT22;37929;53.218;6.548;2022-08-21T08:12:38;19.40;99.90
51902;DHT22;37929;53.218;6.548;2022-08-21T08:15:22;19.50;99.90
51902;DHT22;37929;53.218;6.548;2022-08-21T08:17:58;19.60;99.90
51902;DHT22;37929;53.218;6.548;2022-08-21T08:20:25;19.70;99.90
51902;DHT22;37929;53.218;6.548;2022-08-21T08:22:53;19.90;99.90
51902;DHT22;37929;53.218;6.548;2022-08-21T08:25:20;19.90;99.90
51902;DHT22;37929;53.218;6.548;2022-08-21T08:27:47;19.90;99.90
51902;DHT22;37929;53.218;6.548;2022-08-21T08:30:15;20.00;99.90
51902;DHT22;37929;53.218;6.548;2022-08-21T08:32:42;20.20;99.90
51902;DHT22;37929;53.218;6.548;2022-08-21T08:35:08;20.20;99.90
51902;DHT22;37929;53.218;6.548;2022-08-21T08:37:35;20.20;99.90
51902;DHT22;37929;53.218;6.548;2022-08-21T08:40:04;20.30;99.90
51902;DHT22;37929;53.218;6.548;2022-08-21T08:42:35;20.50;99.90
51902;DHT22;37929;53.218;6.548;2022-08-21T08:45:13;20.50;99.90
51902;DHT22;37929;53.218;6.548;2022-08-21T08:48:01;20.60;99.90
51902;DHT22;37929;53.218;6.548;2022-08-21T08:53:07;20.60;99.90
51902;DHT22;37929;53.218;6.548;2022-08-21T08:55:40;20.50;99.90
51902;DHT22;37929;53.218;6.548;2022-08-21T08:58:09;20.50;99.90
51902;DHT22;37929;53.218;6.548;2022-08-21T09:00:38;20.60;99.90
51902;DHT22;37929;53.218;6.548;2022-08-21T09:03:04;20.70;99.90
51902;DHT22;37929;53.218;6.548;2022-08-21T09:11:04;21.10;99.90
51902;DHT22;37929;53.218;6.548;2022-08-21T09:16:59;20.90;99.90
51902;DHT22;37929;53.218;6.548;2022-08-21T09:27:20;21.10;99.90
51902;DHT22;37929;53.218;6.548;2022-08-21T09:29:49;21.00;99.90
51902;DHT22;37929;53.218;6.548;2022-08-21T09:32:26;21.00;99.90
51902;DHT22;37929;53.218;6.548;2022-08-21T09:35:12;20.90;99.90
51902;DHT22;37929;53.218;6.548;2022-08-21T09:37:54;21.20;99.90
51902;DHT22;37929;53.218;6.548;2022-08-21T09:45:41;21.40;99.90
51902;DHT22;37929;53.218;6.548;2022-08-21T09:48:12;21.40;99.90
51902;DHT22;37929;53.218;6.548;2022-08-21T09:50:40;21.40;99.90
51902;DHT22;37929;53.218;6.548;2022-08-21T09:53:16;21.30;99.90
51902;DHT22;37929;53.218;6.548;2022-08-21T09:55:54;21.30;99.90
51902;DHT22;37929;53.218;6.548;2022-08-21T09:58:42;21.30;99.90
51902;DHT22;37929;53.218;6.548;2022-08-21T10:01:18;21.30;99.90
51902;DHT22;37929;53.218;6.548;2022-08-21T10:04:00;21.40;99.90
51902;DHT22;37929;53.218;6.548;2022-08-21T10:06:27;21.50;99.90
51902;DHT22;37929;53.218;6.548;2022-08-21T10:09:26;21.70;99.90
51902;DHT22;37929;53.218;6.548;2022-08-21T10:12:16;21.80;99.90
51902;DHT22;37929;53.218;6.548;2022-08-21T10:15:20;21.90;99.90
51902;DHT22;37929;53.218;6.548;2022-08-21T10:18:09;22.00;99.90
51902;DHT22;37929;53.218;6.548;2022-08-21T10:20:49;22.10;99.90
51902;DHT22;37929;53.218;6.548;2022-08-21T10:35:02;22.40;99.90
51902;DHT22;37929;53.218;6.548;2022-08-21T10:40:24;22.30;99.90
51902;DHT22;37929;53.218;6.548;2022-08-21T10:43:16;22.30;99.90
51902;DHT22;37929;53.218;6.548;2022-08-21T10:46:18;22.30;99.90
51902;DHT22;37929;53.218;6.548;2022-08-21T11:00:08;21.80;99.90
51902;DHT22;37929;53.218;6.548;2022-08-21T11:05:12;21.70;99.90
51902;DHT22;37929;53.218;6.548;2022-08-21T11:08:04;21.70;99.90
51902;DHT22;37929;53.218;6.548;2022-08-21T11:10:52;21.70;99.90
51902;DHT22;37929;53.218;6.548;2022-08-21T11:13:41;21.60;99.90
51902;DHT22;37929;53.218;6.548;2022-08-21T11:16:44;21.70;99.90
51902;DHT22;37929;53.218;6.548;2022-08-21T11:19:41;21.80;99.90
51902;DHT22;37929;53.218;6.548;2022-08-21T11:22:13;21.90;99.90
51902;DHT22;37929;53.218;6.548;2022-08-21T11:30:00;22.30;99.90
51902;DHT22;37929;53.218;6.548;2022-08-21T11:32:47;22.40;99.90
51902;DHT22;37929;53.218;6.548;2022-08-21T11:41:06;22.70;99.90
51902;DHT22;37929;53.218;6.548;2022-08-21T11:43:40;22.70;99.90
51902;DHT22;37929;53.218;6.548;2022-08-21T11:51:52;23.10;99.90
51902;DHT22;37929;53.218;6.548;2022-08-21T11:54:44;23.20;99.90
51902;DHT22;37929;53.218;6.548;2022-08-21T11:57:26;23.10;99.90
51902;DHT22;37929;53.218;6.548;2022-08-21T12:00:13;23.00;99.90
51902;DHT22;37929;53.218;6.548;2022-08-21T12:02:53;23.00;99.90
51902;DHT22;37929;53.218;6.548;2022-08-21T12:05:42;23.00;99.90
51902;DHT22;37929;53.218;6.548;2022-08-21T12:08:35;23.10;99.90
51902;DHT22;37929;53.218;6.548;2022-08-21T12:11:08;23.20;99.90
51902;DHT22;37929;53.218;6.548;2022-08-21T12:13:40;23.30;99.90
51902;DHT22;37929;53.218;6.548;2022-08-21T12:16:12;23.50;99.90
51902;DHT22;37929;53.218;6.548;2022-08-21T12:18:39;23.50;99.90
51902;DHT22;37929;53.218;6.548;2022-08-21T12:21:24;23.60;99.90
51902;DHT22;37929;53.218;6.548;2022-08-21T12:26:37;23.80;99.90
51902;DHT22;37929;53.218;6.548;2022-08-21T12:29:26;24.00;99.90
51902;DHT22;37929;53.218;6.548;2022-08-21T12:31:54;24.00;99.90
51902;DHT22;37929;53.218;6.548;2022-08-21T12:34:24;24.00;99.90
51902;DHT22;37929;53.218;6.548;2022-08-21T12:37:45;23.80;99.90
51902;DHT22;37929;53.218;6.548;2022-08-21T12:39:46;24.00;99.90
51902;DHT22;37929;53.218;6.548;2022-08-21T12:42:20;23.80;99.90
51902;DHT22;37929;53.218;6.548;2022-08-21T12:44:55;23.80;99.90
51902;DHT22;37929;53.218;6.548;2022-08-21T12:49:56;23.60;99.90
51902;DHT22;37929;53.218;6.548;2022-08-21T12:52:32;23.50;99.90
51902;DHT22;37929;53.218;6.548;2022-08-21T12:54:58;23.40;99.90
51902;DHT22;37929;53.218;6.548;2022-08-21T12:57:27;23.40;99.90
51902;DHT22;37929;53.218;6.548;2022-08-21T12:59:59;23.40;99.90
51902;DHT22;37929;53.218;6.548;2022-08-21T13:02:29;23.40;99.90
51902;DHT22;37929;53.218;6.548;2022-08-21T13:05:03;23.30;99.90
51902;DHT22;37929;53.218;6.548;2022-08-21T13:07:31;23.30;99.90
51902;DHT22;37929;53.218;6.548;2022-08-21T13:10:07;23.20;99.90
51902;DHT22;37929;53.218;6.548;2022-08-21T13:12:41;23.10;99.90
51902;DHT22;37929;53.218;6.548;2022-08-21T13:15:08;23.20;99.90
51902;DHT22;37929;53.218;6.548;2022-08-21T13:17:39;23.40;99.90
51902;DHT22;37929;53.218;6.548;2022-08-21T13:20:09;23.40;99.90
51902;DHT22;37929;53.218;6.548;2022-08-21T13:22:43;23.60;99.90
51902;DHT22;37929;53.218;6.548;2022-08-21T13:25:26;23.70;99.90
51902;DHT22;37929;53.218;6.548;2022-08-21T13:28:00;23.80;99.90
51902;DHT22;37929;53.218;6.548;2022-08-21T13:30:26;23.90;99.90
51902;DHT22;37929;53.218;6.548;2022-08-21T13:32:58;24.00;99.90
51902;DHT22;37929;53.218;6.548;2022-08-21T13:35:31;24.00;99.90
51902;DHT22;37929;53.218;6.548;2022-08-21T13:38:02;24.00;99.90
51902;DHT22;37929;53.218;6.548;2022-08-21T13:40:38;23.90;99.90
51902;DHT22;37929;53.218;6.548;2022-08-21T13:43:11;23.90;99.90
51902;DHT22;37929;53.218;6.548;2022-08-21T13:45:38;23.90;99.90
51902;DHT22;37929;53.218;6.548;2022-08-21T13:48:04;23.90;99.90
51902;DHT22;37929;53.218;6.548;2022-08-21T13:50:46;23.80;99.90
51902;DHT22;37929;53.218;6.548;2022-08-21T13:53:34;23.90;99.90
51902;DHT22;37929;53.218;6.548;2022-08-21T13:56:04;24.00;99.90
51902;DHT22;37929;53.218;6.548;2022-08-21T13:58:41;23.90;99.90
51902;DHT22;37929;53.218;6.548;2022-08-21T14:01:21;24.00;99.90
51902;DHT22;37929;53.218;6.548;2022-08-21T14:03:49;24.00;99.90
51902;DHT22;37929;53.218;6.548;2022-08-21T14:06:26;24.00;99.90
51902;DHT22;37929;53.218;6.548;2022-08-21T14:08:59;23.90;99.90
51902;DHT22;37929;53.218;6.548;2022-08-21T14:11:27;23.80;99.90
51902;DHT22;37929;53.218;6.548;2022-08-21T14:14:03;23.80;99.90
51902;DHT22;37929;53.218;6.548;2022-08-21T14:16:42;23.60;99.90
51902;DHT22;37929;53.218;6.548;2022-08-21T14:25:08;23.40;99.90
51902;DHT22;37929;53.218;6.548;2022-08-21T14:27:38;23.20;99.90
51902;DHT22;37929;53.218;6.548;2022-08-21T14:30:31;23.10;99.90
51902;DHT22;37929;53.218;6.548;2022-08-21T14:32:58;23.10;99.90
51902;DHT22;37929;53.218;6.548;2022-08-21T14:35:25;23.10;99.90
51902;DHT22;37929;53.218;6.548;2022-08-21T14:37:54;23.10;99.90
51902;DHT22;37929;53.218;6.548;2022-08-21T14:40:23;23.10;99.90
51902;DHT22;37929;53.218;6.548;2022-08-21T14:42:49;23.10;99.90
51902;DHT22;37929;53.218;6.548;2022-08-21T14:45:16;23.20;99.90
51902;DHT22;37929;53.218;6.548;2022-08-21T14:47:42;23.20;99.90
51902;DHT22;37929;53.218;6.548;2022-08-21T14:50:12;23.20;99.90
51902;DHT22;37929;53.218;6.548;2022-08-21T14:52:38;23.20;99.90
51902;DHT22;37929;53.218;6.548;2022-08-21T14:55:08;23.20;99.90
51902;DHT22;37929;53.218;6.548;2022-08-21T14:57:40;23.20;99.90
51902;DHT22;37929;53.218;6.548;2022-08-21T15:00:11;23.10;99.90
51902;DHT22;37929;53.218;6.548;2022-08-21T15:02:39;23.20;99.90
51902;DHT22;37929;53.218;6.548;2022-08-21T15:05:06;23.30;99.90
51902;DHT22;37929;53.218;6.548;2022-08-21T15:07:35;23.30;99.90
51902;DHT22;37929;53.218;6.548;2022-08-21T15:13:28;23.50;99.90
51902;DHT22;37929;53.218;6.548;2022-08-21T15:15:54;23.50;99.90
51902;DHT22;37929;53.218;6.548;2022-08-21T15:18:24;23.50;99.90
51902;DHT22;37929;53.218;6.548;2022-08-21T15:20:51;23.50;99.90
51902;DHT22;37929;53.218;6.548;2022-08-21T15:23:20;23.60;99.90
51902;DHT22;37929;53.218;6.548;2022-08-21T15:25:47;23.60;99.90
51902;DHT22;37929;53.218;6.548;2022-08-21T15:28:17;23.60;99.90
51902;DHT22;37929;53.218;6.548;2022-08-21T15:30:47;23.60;99.90
51902;DHT22;37929;53.218;6.548;2022-08-21T15:33:35;23.50;99.90
51902;DHT22;37929;53.218;6.548;2022-08-21T15:36:01;23.50;99.90
51902;DHT22;37929;53.218;6.548;2022-08-21T15:38:52;23.40;99.90
51902;DHT22;37929;53.218;6.548;2022-08-21T15:41:37;23.40;99.90
51902;DHT22;37929;53.218;6.548;2022-08-21T15:44:05;23.20;99.90
51902;DHT22;37929;53.218;6.548;2022-08-21T15:46:34;23.00;99.90
51902;DHT22;37929;53.218;6.548;2022-08-21T15:49:00;23.20;99.90
51902;DHT22;37929;53.218;6.548;2022-08-21T15:51:26;23.20;99.90
51902;DHT22;37929;53.218;6.548;2022-08-21T15:53:51;23.10;99.90
51902;DHT22;37929;53.218;6.548;2022-08-21T15:56:24;23.10;99.90
51902;DHT22;37929;53.218;6.548;2022-08-21T15:58:59;23.00;99.90
51902;DHT22;37929;53.218;6.548;2022-08-21T16:01:25;23.00;99.90
51902;DHT22;37929;53.218;6.548;2022-08-21T16:03:54;23.00;99.90
51902;DHT22;37929;53.218;6.548;2022-08-21T16:06:21;23.00;99.90
51902;DHT22;37929;53.218;6.548;2022-08-21T16:08:47;23.00;99.90
51902;DHT22;37929;53.218;6.548;2022-08-21T16:11:16;22.90;99.90
51902;DHT22;37929;53.218;6.548;2022-08-21T16:13:46;22.90;99.90
51902;DHT22;37929;53.218;6.548;2022-08-21T16:16:18;22.90;99.90
51902;DHT22;37929;53.218;6.548;2022-08-21T16:18:44;22.90;99.90
51902;DHT22;37929;53.218;6.548;2022-08-21T16:21:10;22.80;99.90
51902;DHT22;37929;53.218;6.548;2022-08-21T16:23:36;22.80;99.90
51902;DHT22;37929;53.218;6.548;2022-08-21T16:26:04;22.80;99.90
51902;DHT22;37929;53.218;6.548;2022-08-21T16:28:31;22.80;99.90
51902;DHT22;37929;53.218;6.548;2022-08-21T16:30:58;22.80;99.90
51902;DHT22;37929;53.218;6.548;2022-08-21T16:33:33;22.70;99.90
51902;DHT22;37929;53.218;6.548;2022-08-21T16:36:00;22.80;99.90
51902;DHT22;37929;53.218;6.548;2022-08-21T16:38:27;22.60;99.90
51902;DHT22;37929;53.218;6.548;2022-08-21T16:40:58;22.60;99.90
51902;DHT22;37929;53.218;6.548;2022-08-21T16:43:28;22.60;99.90
51902;DHT22;37929;53.218;6.548;2022-08-21T16:45:55;22.60;99.90
51902;DHT22;37929;53.218;6.548;2022-08-21T16:48:22;22.60;99.90
51902;DHT22;37929;53.218;6.548;2022-08-21T16:50:48;22.50;99.90
51902;DHT22;37929;53.218;6.548;2022-08-21T16:53:14;22.40;99.90
51902;DHT22;37929;53.218;6.548;2022-08-21T16:55:40;22.40;99.90
51902;DHT22;37929;53.218;6.548;2022-08-21T16:58:15;22.40;99.90
51902;DHT22;37929;53.218;6.548;2022-08-21T17:00:42;22.40;99.90
51902;DHT22;37929;53.218;6.548;2022-08-21T17:03:13;22.40;99.90
51902;DHT22;37929;53.218;6.548;2022-08-21T17:05:40;22.40;99.90
51902;DHT22;37929;53.218;6.548;2022-08-21T17:08:06;22.30;99.90
51902;DHT22;37929;53.218;6.548;2022-08-21T17:10:33;22.30;99.90
51902;DHT22;37929;53.218;6.548;2022-08-21T17:12:59;22.30;99.90
51902;DHT22;37929;53.218;6.548;2022-08-21T17:15:31;22.30;99.90
51902;DHT22;37929;53.218;6.548;2022-08-21T17:18:00;22.30;99.90